Latest Weather Observations for Mount Crawford

IDS60901

Issued at 4:25 am CST Wednesday 30 July 2014 (issued every 10 minutes, with the page automatically refreshed every 10 minutes)

About weather observations | Map of Adelaide area stations | Latest observations for Adelaide area | Other Formats
Station Details ID: 023878 Name: MT CRAWFORD AWS Lat: -34.73 Lon: 138.93 Height: 525.0 m
Data from the previous 72 hours. | See also: Recent months at Mount Crawford
Date/Time
CST
Tmp

°C
App
Tmp
°C
Dew
Point
°C
Rel
Hum
%
Delta-T

°C
Wind Press
QNH
hPa
Press
MSL
hPa
Rain
since
9 am
mm
Dir
 
Spd
km/h
Gust
km/h
Spd
kts
Gust
kts
30/04:00am 9.7 3.4 9.7 100 0.0 WNW 33 48 18 26 1016.5 - 15.6
30/03:30am 9.8 3.1 9.8 100 0.0 WNW 35 54 19 29 1016.6 1017.1 15.6
30/03:24am 9.8 4.1 9.8 100 0.0 W 30 48 16 26 1016.6 - 15.6
30/03:00am 9.9 4.2 9.9 100 0.0 WNW 30 44 16 24 1016.9 1017.4 15.6
30/02:30am 10.0 4.7 10.0 100 0.0 WNW 28 43 15 23 1017.3 1017.7 15.0
30/02:00am 10.0 4.4 10.0 100 0.0 WNW 30 43 16 23 1017.4 - 14.8
30/01:49am 10.0 4.0 10.0 100 0.0 WNW 32 52 17 28 1017.4 - 14.8
30/01:30am 10.0 4.0 10.0 100 0.0 WNW 32 41 17 22 1017.7 1018.1 14.8
30/01:02am 10.1 4.1 10.1 100 0.0 WNW 32 50 17 27 1017.7 - 14.4
30/01:00am 10.1 4.5 10.1 100 0.0 WNW 30 43 16 23 1017.8 - 14.4
30/12:30am 10.3 4.2 10.3 100 0.0 WNW 33 44 18 24 1017.7 1018.1 14.0
30/12:00am 10.3 4.2 10.3 100 0.0 WNW 33 50 18 27 1017.8 1018.3 13.0
 
Date/Time
CST
Tmp

°C
App
Tmp
°C
Dew
Point
°C
Rel
Hum
%
Delta-T

°C
Wind Press
QNH
hPa
Press
MSL
hPa
Rain
since
9 am
mm
Dir
 
Spd
km/h
Gust
km/h
Spd
kts
Gust
kts
29/11:30pm 10.4 3.9 10.4 100 0.0 WNW 35 46 19 25 1017.8 1018.3 12.4
29/11:01pm 10.2 3.7 10.2 100 0.0 W 35 54 19 29 1017.9 - 12.0
29/11:00pm 10.2 3.3 10.2 100 0.0 W 37 54 20 29 1017.8 - 12.0
29/10:30pm 10.5 3.3 10.5 100 0.0 W 39 63 21 34 1017.6 1018.0 11.4
29/10:00pm 10.5 3.7 10.5 100 0.0 WNW 37 59 20 32 1017.8 - 10.6
29/09:39pm 10.5 3.7 10.5 100 0.0 WNW 37 57 20 31 1017.6 - 10.6
29/09:30pm 10.5 3.3 10.5 100 0.0 W 39 54 21 29 1017.7 1018.1 10.6
29/09:00pm 10.3 3.4 10.3 100 0.0 W 37 52 20 28 1017.6 1018.0 9.8
29/08:30pm 10.5 4.0 10.5 100 0.0 W 35 56 19 30 1017.3 1017.7 8.2
29/08:00pm 10.5 3.7 10.5 100 0.0 W 37 56 20 30 1017.4 - 7.6
29/07:38pm 10.6 4.5 10.6 100 0.0 W 33 52 18 28 1017.1 - 7.4
29/07:30pm 10.6 4.2 10.6 100 0.0 W 35 48 19 26 1017.1 1017.5 7.4
29/07:02pm 10.6 4.2 10.6 100 0.0 WNW 35 54 19 29 1016.5 - 6.2
29/07:00pm 10.6 4.2 10.6 100 0.0 WNW 35 50 19 27 1016.6 - 6.0
29/06:50pm 10.8 5.0 10.8 100 0.0 WNW 32 52 17 28 1016.6 - 5.8
29/06:30pm 10.8 5.4 10.8 100 0.0 WNW 30 44 16 24 1016.7 1017.2 5.2
29/06:00pm 11.0 6.0 11.0 100 0.0 WNW 28 44 15 24 1016.6 1017.1 5.0
29/05:30pm 11.0 5.6 11.0 100 0.0 WNW 30 43 16 23 1016.5 1017.0 5.0
29/05:00pm 11.0 5.1 11.0 100 0.0 WNW 33 48 18 26 1016.3 - 4.6
29/04:31pm 11.0 5.1 11.0 100 0.0 WNW 33 52 18 28 1015.9 - 3.4
29/04:30pm 11.0 5.1 11.0 100 0.0 WNW 33 46 18 25 1015.9 1016.3 3.4
29/04:00pm 11.0 5.1 11.0 100 0.0 WNW 33 56 18 30 1015.8 - 0.8
29/03:42pm 11.0 4.3 11.0 100 0.0 WNW 37 65 20 35 1015.5 - 0.6
29/03:33pm 10.9 5.9 10.9 100 0.0 WNW 28 46 15 25 1015.8 - 0.4
29/03:30pm 10.9 5.9 10.9 100 0.0 WNW 28 41 15 22 1015.8 1016.2 0.4
29/03:00pm 11.0 4.3 11.0 100 0.0 WNW 37 59 20 32 1015.7 1016.1 0.2
29/02:30pm 11.3 4.7 11.3 100 0.0 WNW 37 57 20 31 1015.3 1015.7 0.0
29/02:00pm 11.2 4.2 11.2 100 0.0 WNW 39 57 21 31 1015.1 - 0.0
29/01:36pm 10.9 5.1 10.9 100 0.0 WNW 32 59 17 32 1015.1 - 0.0
29/01:30pm 10.9 5.1 10.9 100 0.0 WNW 32 48 17 26 1015.1 1015.5 0.0
29/01:00pm 10.7 4.7 10.7 100 0.0 WNW 33 56 18 30 1015.1 - 0.0
29/12:30pm 10.4 3.9 10.4 100 0.0 WNW 35 54 19 29 1015.3 1015.7 0.0
29/12:00pm 10.3 3.0 10.3 100 0.0 WNW 39 61 21 33 1015.2 1015.6 0.0
29/11:30am 9.6 2.5 9.6 100 0.0 WNW 37 61 20 33 1015.6 1016.0 0.0
29/11:15am 9.4 2.3 9.4 100 0.0 WNW 37 56 20 30 1015.5 - 0.0
29/11:00am 9.3 1.8 9.3 100 0.0 WNW 39 50 21 27 1015.5 - 0.0
29/10:30am 9.3 1.8 9.3 100 0.0 WNW 39 59 21 32 1015.7 1016.1 0.0
29/10:02am 9.0 1.0 9.0 100 0.0 NW 41 59 22 32 1015.5 - 0.0
29/10:00am 9.0 0.6 9.0 100 0.0 NW 43 59 23 32 1015.5 - 0.0
29/09:30am 8.8 0.4 8.8 100 0.0 WNW 43 61 23 33 1015.2 1015.6 0.0
29/09:07am 8.5 0.4 8.5 100 0.0 WNW 41 61 22 33 1014.9 - 0.0
29/09:00am 8.3 0.1 8.3 100 0.0 WNW 41 57 22 31 1015.1 1015.5 0.0
29/08:30am 7.7 -0.2 7.7 100 0.0 WNW 39 57 21 31 1014.7 1015.2 0.0
29/08:25am 7.7 -0.2 7.7 100 0.0 WNW 39 57 21 31 1014.6 - 0.0
29/08:00am 7.6 -1.1 7.6 100 0.0 WNW 43 59 23 32 1014.3 - 0.0
29/07:30am 7.6 -0.7 7.6 100 0.0 WNW 41 59 22 32 1014.0 1014.4 0.0
29/07:00am 7.5 -0.5 7.5 100 0.0 WNW 39 57 21 31 1013.8 - 0.0
29/06:33am 7.3 -1.5 7.2 99 0.0 WNW 43 63 23 34 1013.2 - 0.0
29/06:30am 7.3 -1.5 7.2 99 0.0 WNW 43 59 23 32 1013.3 1013.7 0.0
29/06:00am 7.7 -0.3 7.4 98 0.1 WNW 39 57 21 31 1013.9 1014.3 0.0
29/05:30am 7.8 -0.3 7.1 95 0.3 WNW 39 61 21 33 1014.0 1014.4 0.0
29/05:20am 7.9 -0.2 6.8 93 0.5 WNW 39 57 21 31 1013.7 - 0.0
29/05:00am 7.7 -0.6 6.2 90 0.7 WNW 39 54 21 29 1013.1 - 0.0
29/04:30am 7.5 -1.6 5.8 89 0.8 WNW 43 61 23 33 1013.2 1013.6 0.0
29/04:20am 7.5 -1.2 5.8 89 0.8 WNW 41 61 22 33 1013.5 - 0.0
29/04:00am 7.5 -0.5 5.8 89 0.8 WNW 37 48 20 26 1013.9 - 0.0
29/03:30am 7.8 -0.2 5.8 87 0.9 WNW 37 52 20 28 1014.0 1014.4 0.0
29/03:00am 7.9 0.3 6.0 88 0.9 WNW 35 54 19 29 1014.2 1014.6 0.0
29/02:47am 8.0 0.1 6.3 89 0.8 WNW 37 56 20 30 1014.4 - 0.0
29/02:30am 7.9 0.0 6.2 89 0.8 WNW 37 54 20 29 1014.4 1014.8 0.0
29/02:15am 8.0 0.1 6.0 87 0.9 WNW 37 59 20 32 1014.4 - 0.0
29/02:00am 8.2 0.3 6.0 86 1.0 WNW 37 52 20 28 1014.4 - 0.0
29/01:30am 8.6 -0.5 5.9 83 1.3 WNW 43 65 23 35 1014.3 1014.7 0.0
29/01:00am 9.1 0.0 5.8 80 1.6 WNW 43 63 23 34 1014.2 - 0.0
29/12:34am 9.0 -0.1 5.9 81 1.5 WNW 43 61 23 33 1014.5 - 0.0
29/12:30am 9.0 -0.1 5.9 81 1.5 WNW 43 59 23 32 1014.6 1015.1 0.0
29/12:00am 9.2 0.9 6.3 82 1.4 WNW 39 59 21 32 1014.7 1015.2 0.0
 
Date/Time
CST
Tmp

°C
App
Tmp
°C
Dew
Point
°C
Rel
Hum
%
Delta-T

°C
Wind Press
QNH
hPa
Press
MSL
hPa
Rain
since
9 am
mm
Dir
 
Spd
km/h
Gust
km/h
Spd
kts
Gust
kts
28/11:49pm 9.0 1.5 6.1 82 1.4 WNW 35 54 19 29 1014.8 - 0.0
28/11:30pm 9.0 1.5 6.3 83 1.3 WNW 35 48 19 26 1014.9 1015.4 0.0
28/11:00pm 9.4 1.5 6.3 81 1.5 WNW 37 54 20 29 1015.1 - 0.0
28/10:40pm 9.8 1.6 6.5 80 1.6 WNW 39 59 21 32 1014.9 - 0.0
28/10:30pm 9.7 1.9 6.8 82 1.4 WNW 37 54 20 29 1015.1 1015.5 0.0
28/10:13pm 9.8 2.2 7.4 85 1.2 WNW 37 57 20 31 1015.2 - 0.0
28/10:00pm 9.6 2.0 7.7 88 0.9 WNW 37 50 20 27 1015.3 - 0.0
28/09:30pm 9.6 1.7 7.7 88 0.9 WNW 39 54 21 29 1015.3 1015.7 0.0
28/09:17pm 9.8 1.9 7.7 87 1.0 WNW 39 57 21 31 1015.2 - 0.0
28/09:00pm 9.8 2.2 7.7 87 1.0 WNW 37 52 20 28 1015.2 1015.6 0.0
28/08:32pm 9.6 2.6 8.5 93 0.6 WNW 35 54 19 29 1015.1 - 0.0
28/08:30pm 9.4 2.8 8.6 95 0.4 WNW 33 44 18 24 1015.2 1015.6 0.0
28/08:00pm 9.3 2.5 9.2 99 0.1 WNW 35 48 19 26 1015.2 - 0.0
28/07:30pm 9.4 2.6 9.4 100 0.0 WNW 35 48 19 26 1014.9 1015.4 0.0
28/07:00pm 9.2 3.0 9.2 100 0.0 WNW 32 48 17 26 1014.8 - 0.0
28/06:30pm 9.4 3.0 9.4 100 0.0 WNW 33 44 18 24 1014.8 1015.3 0.0
28/06:01pm 9.7 3.0 9.7 100 0.0 WNW 35 54 19 29 1014.8 - 0.0
28/06:00pm 9.7 2.6 9.7 100 0.0 WNW 37 54 20 29 1014.7 1015.2 0.0
28/05:53pm 9.8 3.1 9.8 100 0.0 WNW 35 54 19 29 1014.8 - 0.0
28/05:30pm 10.0 3.4 9.9 99 0.1 WNW 35 52 19 28 1014.6 1015.1 0.0
28/05:02pm 10.3 4.1 10.1 99 0.1 WNW 33 52 18 28 1014.5 - 0.0
28/05:00pm 10.3 4.1 10.1 99 0.1 WNW 33 46 18 25 1014.5 - 0.0
28/04:30pm 10.9 4.3 10.0 94 0.5 WNW 35 56 19 30 1014.3 1014.7 0.0
28/04:11pm 11.1 4.5 10.0 93 0.6 WNW 35 54 19 29 1014.5 - 0.0
28/04:00pm 11.3 4.8 10.4 94 0.5 WNW 35 52 19 28 1014.6 - 0.0
28/03:30pm 11.2 5.3 10.3 94 0.5 WNW 32 52 17 28 1014.9 1015.4 0.0
28/03:27pm 11.2 5.3 10.4 95 0.4 WNW 32 52 17 28 1014.8 - 0.0
28/03:00pm 11.3 5.2 10.5 95 0.4 WNW 33 50 18 27 1015.1 1015.5 0.0
28/02:55pm 11.3 5.8 10.5 95 0.4 WNW 30 50 16 27 1015.1 - 0.0
28/02:30pm 12.1 6.9 11.5 96 0.3 WNW 30 44 16 24 1015.3 1015.7 0.0
28/02:00pm 11.2 6.2 10.9 98 0.2 WNW 28 41 15 22 1015.4 - 0.0
28/01:30pm 10.6 5.4 10.1 97 0.3 WNW 28 41 15 22 1015.7 1016.1 0.0
28/01:00pm 10.2 4.4 9.4 95 0.4 WNW 30 41 16 22 1015.9 - 0.0
28/12:30pm 10.0 4.0 8.6 91 0.7 WNW 30 39 16 21 1016.3 1016.8 0.0
28/12:00pm 9.8 4.9 8.6 92 0.6 WNW 24 35 13 19 1016.7 1017.2 0.0
28/11:30am 9.5 4.2 8.6 94 0.5 WNW 26 37 14 20 1017.2 1017.6 0.0
28/11:00am 9.4 3.7 8.5 94 0.5 WNW 28 35 15 19 1017.5 - 0.0
28/10:30am 9.0 3.2 7.9 93 0.5 WNW 28 37 15 20 1017.5 1017.9 0.0
28/10:00am 9.0 4.2 7.5 90 0.7 NW 22 32 12 17 1017.5 - 0.0
28/09:30am 8.5 3.6 7.0 90 0.7 NW 22 30 12 16 1017.5 1017.9 0.0
28/09:00am 7.8 2.3 5.8 87 0.9 WNW 24 32 13 17 1017.7 1018.1 0.0
28/08:30am 7.8 2.1 5.1 83 1.2 WNW 24 35 13 19 1017.5 1017.9 0.0
28/08:00am 7.8 2.5 5.1 83 1.2 NW 22 32 12 17 1017.3 - 0.0
28/07:30am 7.7 2.0 4.7 81 1.4 WNW 24 35 13 19 1017.1 1017.5 0.0
28/07:00am 7.7 2.0 4.7 81 1.4 NW 24 35 13 19 1016.8 - 0.0
28/06:30am 7.5 1.7 4.5 81 1.3 WNW 24 35 13 19 1016.6 1017.1 0.0
28/06:00am 7.4 1.2 4.2 80 1.4 WNW 26 37 14 20 1016.5 1017.0 0.0
28/05:30am 7.6 1.3 4.0 78 1.6 NW 26 37 14 20 1016.3 1016.8 0.0
28/05:00am 7.9 2.0 3.9 76 1.8 WNW 24 39 13 21 1016.4 - 0.0
28/04:30am 8.4 2.1 4.0 74 2.0 WNW 26 39 14 21 1016.7 1017.2 0.0
28/04:00am 8.5 1.8 3.9 73 2.1 WNW 28 43 15 23 1016.9 - 0.0
28/03:30am 9.1 2.1 3.9 70 2.3 WNW 30 44 16 24 1016.7 1017.2 0.0
28/03:00am 9.3 3.0 3.7 68 2.5 WNW 26 35 14 19 1016.7 1017.2 0.0
28/02:30am 9.6 3.3 3.8 67 2.6 NW 26 37 14 20 1016.9 1017.4 0.0
28/02:00am 9.8 3.5 3.8 66 2.7 NW 26 37 14 20 1017.2 - 0.0
28/01:30am 10.1 3.8 3.8 65 2.9 NW 26 43 14 23 1017.3 1017.7 0.0
28/01:00am 10.0 3.7 4.0 66 2.7 NW 26 39 14 21 1017.4 - 0.0
28/12:30am 10.2 4.3 4.1 66 2.8 NW 24 37 13 20 1017.9 1018.4 0.0
28/12:00am 10.6 4.7 4.1 64 3.0 NW 24 33 13 18 1018.0 1018.5 0.0
 
Date/Time
CST
Tmp

°C
App
Tmp
°C
Dew
Point
°C
Rel
Hum
%
Delta-T

°C
Wind Press
QNH
hPa
Press
MSL
hPa
Rain
since
9 am
mm
Dir
 
Spd
km/h
Gust
km/h
Spd
kts
Gust
kts
27/11:30pm 10.7 4.5 4.2 64 3.0 NW 26 39 14 21 1018.4 1018.9 0.0
27/11:00pm 10.9 5.1 4.4 64 3.0 NW 24 32 13 17 1018.6 - 0.0
27/10:30pm 10.9 5.1 4.4 64 3.0 NW 24 35 13 19 1018.8 1019.3 0.0
27/10:00pm 11.4 5.2 4.2 61 3.3 NW 26 39 14 21 1018.9 - 0.0
27/09:30pm 11.5 5.3 4.3 61 3.3 NNW 26 37 14 20 1019.0 1019.5 0.0
27/09:00pm 11.8 5.2 4.3 60 3.5 NW 28 37 15 20 1019.2 1019.6 0.0
27/08:30pm 11.7 5.5 4.4 61 3.4 NNW 26 37 14 20 1019.0 1019.5 0.0
27/08:00pm 11.8 5.7 4.8 62 3.3 NNW 26 43 14 23 1019.3 - 0.0
27/07:30pm 11.8 5.4 5.2 64 3.1 NNW 28 39 15 21 1019.4 1019.9 0.0
27/07:00pm 11.6 5.7 5.9 68 2.7 NNW 26 39 14 21 1019.4 - 0.0
27/06:30pm 11.5 5.7 6.2 70 2.6 NW 26 39 14 21 1019.3 1019.7 0.0
27/06:00pm 11.4 5.2 6.3 71 2.5 NW 28 41 15 22 1019.3 1019.7 0.0
27/05:30pm 11.7 6.1 7.0 73 2.3 NW 26 37 14 20 1019.3 1019.7 0.0
27/05:00pm 11.6 6.4 7.3 75 2.1 NW 24 35 13 19 1019.4 - 0.0
27/04:30pm 12.0 6.4 7.1 72 2.4 NW 26 37 14 20 1019.3 1019.7 0.0
27/04:00pm 12.3 7.6 7.6 73 2.4 NW 22 32 12 17 1019.4 - 0.0
27/03:30pm 12.3 6.9 8.0 75 2.2 NW 26 44 14 24 1019.3 1019.7 0.0
27/03:00pm 12.3 7.6 7.8 74 2.3 NNW 22 35 12 19 1019.5 1020.0 0.0
27/02:30pm 12.3 6.0 7.6 73 2.3 NW 30 41 16 22 1019.7 1020.2 0.0
27/02:00pm 12.7 6.7 7.0 68 2.8 NW 28 44 15 24 1019.4 - 0.0
27/01:32pm 12.6 5.7 7.1 69 2.7 NW 33 56 18 30 1019.7 - 0.0
27/01:30pm 12.5 5.5 7.0 69 2.7 NW 33 48 18 26 1019.6 1020.1 0.0
27/01:00pm 12.4 4.5 6.0 65 3.1 NW 37 56 20 30 1020.2 - 0.0
27/12:30pm 12.4 5.4 6.7 68 2.8 NW 33 54 18 29 1020.8 1021.3 0.0
27/12:01pm 12.5 5.7 6.8 68 2.8 NW 32 50 17 27 1021.4 - 0.0
27/12:00pm 12.4 5.4 6.7 68 2.8 NW 33 50 18 27 1021.4 1021.9 0.0
27/11:55am 12.5 5.7 7.0 69 2.7 NW 32 50 17 27 1021.5 - 0.0
27/11:30am 12.1 5.0 6.2 67 2.9 NW 33 48 18 26 1022.1 1022.6 0.0
27/11:20am 11.7 5.2 6.6 71 2.5 NW 30 48 16 26 1022.3 - 0.0
27/11:00am 11.3 6.0 6.8 74 2.2 NW 24 37 13 20 1022.5 - 0.0
27/10:30am 11.6 5.4 6.3 70 2.6 NW 28 46 15 25 1023.0 1023.6 0.0
27/10:24am 11.3 5.1 6.2 71 2.5 NW 28 46 15 25 1023.0 - 0.0
27/10:00am 11.3 5.6 6.6 73 2.3 NNW 26 39 14 21 1023.5 - 0.0
27/09:30am 10.2 4.6 5.6 73 2.2 NW 24 39 13 21 1023.8 1024.3 0.0
27/09:00am 9.9 3.9 5.3 73 2.1 NNW 26 37 14 20 1023.8 1024.3 0.2
27/08:30am 10.0 4.1 5.8 75 2.0 NNW 26 33 14 18 1023.5 1024.0 0.2
27/08:00am 9.3 3.6 5.1 75 1.9 NNW 24 33 13 18 1023.3 - 0.2
27/07:30am 8.6 2.9 5.0 78 1.6 NNW 24 32 13 17 1023.4 1023.9 0.2
27/07:00am 8.5 2.8 4.9 78 1.7 NNW 24 32 13 17 1023.3 - 0.2
27/06:30am 8.1 3.2 5.0 81 1.4 NNW 20 32 11 17 1023.2 1023.7 0.2
27/06:00am 8.1 2.8 5.0 81 1.4 NNW 22 32 12 17 1022.8 1023.4 0.2
27/05:30am 8.2 2.9 5.1 81 1.4 NNW 22 32 12 17 1022.9 1023.5 0.2
27/05:00am 8.1 2.8 5.2 82 1.3 NNW 22 30 12 16 1023.3 - 0.2
27/04:30am 8.4 2.8 5.3 81 1.4 NNW 24 33 13 18 1023.5 1024.0 0.2

Latest Capital City Observations: Canberra | Sydney | Melbourne | Brisbane | Adelaide | Perth | Hobart | Darwin

Other Formats:

Comma delimited format used in spreadsheet applications
http://www.bom.gov.au/fwo/IDS60901/IDS60901.94678.axf

JavaScript Object Notation format (JSON) in row-major order
http://www.bom.gov.au/fwo/IDS60901/IDS60901.94678.json